KRNT - Renton
Updated: Tue, 11-Dec-2018 9:53am PST
Light rain, Overcast
Light rain, Overcast
 Wind from ESE
Wind: ESE 6 mph , 9 km/h
Temperature: 46°F , 8°C
Wind Chill: 43°F , 6°C
Dew Point: 43°F , 6°C
Humidity: 87%
Barometer: 29.84 inHg , 1010.5 hPa
Visibility: 8 miles , 13 km
Cloud details: 3100 ft
2018/12/11 17:53 KRNT 111753Z 12005KT 8SM -RA OVC031 08/06 A2984 RMK AO2 SLP111 P0001 60003 T00780061 10078 20067 57030 $
KBFI - Seattle-Boeing
Updated: Tue, 11-Dec-2018 9:53am PST
Light rain, Overcast
Light rain, Overcast
 Wind from SE
Wind: SE 8 mph , 13 km/h
Temperature: 46°F , 8°C
Wind Chill: 42°F , 6°C
Dew Point: 43°F , 6°C
Humidity: 87%
Barometer: 29.84 inHg , 1010.5 hPa
Visibility: 9 miles , 14 km
Cloud details: 1000 ft
2500 ft
2018/12/11 17:53 KBFI 111753Z 14007KT 9SM -RA FEW010 OVC025 08/06 A2984 RMK AO2 SLP106 P0002 60010 T00780061 10078 20061 58029
 
KSEA - Seattle
Updated: Tue, 11-Dec-2018 9:53am PST
Light rain, Overcast
Light rain, Overcast
 Wind from S
Wind: S 12 mph , 19 km/h
Temperature: 46°F , 8°C
Wind Chill: 40°F , 4°C
Dew Point: 43°F , 6°C
Humidity: 87%
Barometer: 29.83 inHg , 1010.2 hPa
Visibility: 7 miles , 11 km
Cloud details: 1100 ft
2400 ft
2018/12/11 17:53 KSEA 111753Z 17010KT 7SM -RA FEW011 OVC024 08/06 A2983 RMK AO2 SLP110 P0005 60018 T00830061 10083 20061 58029
KSMP - Stampede Pass
Updated: Tue, 11-Dec-2018 9:34am PST
Light snow, Mist, Overcast
Light snow, Mist, Overcast
 Wind from ESE
Wind: ESE 5 mph , 7 km/h
Temperature: 28°F , -2°C
Wind Chill: 22°F , -6°C
Dew Point: 25°F , -4°C
Humidity: 86%
Barometer: 29.85 inHg , 1010.8 hPa
Summary: Light snow, Mist
Visibility: 2 1/2 miles , 4 km
Cloud details: 1400 ft
2018/12/11 17:34 KSMP 111734Z AUTO 11004KT 2 1/2SM -SN BR OVC014 M02/M04 A2985 RMK AO2 VIS 1 3/4V4 P0001 T10221039 $